Time;durP1;ratioP1;P1;durP2;ratioP2;P2;SDS_P1;SDS_P2;PMS_P1;PMS_P2;Temp;Humidity;BMP_temperature;BMP_pressure;BME280_temperature;BME280_humidity;BME280_pressure;Samples;Min_cycle;Max_cycle;Signal;HPM_P1;HPM_P2
2022/03/06 00:01:02;;;;;;;35.07;16.43;;;4.00;65.50;;;;;;5018424;28;20033;-73
2022/03/06 00:03:29;;;;;;;30.30;14.53;;;4.00;65.20;;;;;;5035895;28;20117;-74
2022/03/06 00:05:54;;;;;;;33.47;16.70;;;3.90;65.30;;;;;;5034560;28;20393;-74
2022/03/06 00:08:20;;;;;;;33.63;15.93;;;3.80;65.40;;;;;;5034549;28;20076;-74
2022/03/06 00:10:47;;;;;;;30.93;15.00;;;3.80;65.20;;;;;;5034613;28;20029;-74
2022/03/06 00:13:14;;;;;;;30.53;15.23;;;3.80;65.00;;;;;;5034471;28;20033;-73
2022/03/06 00:15:40;;;;;;;30.13;15.17;;;3.70;65.00;;;;;;5034804;28;20037;-73
2022/03/06 00:18:06;;;;;;;28.23;14.17;;;3.70;65.80;;;;;;5036559;28;20485;-73
2022/03/06 00:20:32;;;;;;;28.10;13.60;;;3.70;65.50;;;;;;5034426;28;20038;-73
2022/03/06 00:22:57;;;;;;;31.67;16.00;;;3.60;65.80;;;;;;5017757;28;20026;-74
2022/03/06 00:25:23;;;;;;;31.90;14.27;;;3.60;66.50;;;;;;5034386;28;20026;-73
2022/03/06 00:27:49;;;;;;;33.20;16.50;;;3.60;66.70;;;;;;5035413;28;20465;-73
2022/03/06 00:30:15;;;;;;;31.40;15.73;;;3.50;66.20;;;;;;5034280;28;20029;-73
2022/03/06 00:32:40;;;;;;;32.07;15.13;;;3.50;66.40;;;;;;5035276;28;20034;-73
2022/03/06 00:35:07;;;;;;;27.70;13.40;;;3.60;66.60;;;;;;5017669;28;20055;-74
2022/03/06 00:37:33;;;;;;;30.60;14.93;;;3.40;66.60;;;;;;5034033;28;20112;-73
2022/03/06 00:39:58;;;;;;;31.40;15.77;;;3.40;67.40;;;;;;5017483;28;20045;-74
2022/03/06 00:42:24;;;;;;;29.50;15.20;;;3.40;67.80;;;;;;5033958;28;20389;-73
2022/03/06 00:44:50;;;;;;;29.73;14.67;;;3.30;67.50;;;;;;5033484;28;20030;-74
2022/03/06 00:47:16;;;;;;;31.80;16.03;;;3.30;67.90;;;;;;5044210;28;20079;-73
2022/03/06 00:49:43;;;;;;;31.43;15.53;;;3.20;67.90;;;;;;5055088;28;20103;-74
2022/03/06 00:52:09;;;;;;;28.20;14.67;;;3.20;67.30;;;;;;5053628;28;20334;-73
2022/03/06 00:54:34;;;;;;;29.93;15.13;;;3.20;68.40;;;;;;5054943;28;20068;-73
2022/03/06 00:57:00;;;;;;;30.03;15.50;;;3.20;68.40;;;;;;5037104;28;20366;-74
2022/03/06 00:59:32;;;;;;;31.43;15.10;;;3.20;69.20;;;;;;5036852;28;20033;-74
2022/03/06 01:01:59;;;;;;;31.87;15.47;;;3.10;69.40;;;;;;5034240;28;20486;-73
2022/03/06 01:04:25;;;;;;;26.70;14.60;;;3.10;70.90;;;;;;5033590;28;20029;-74
2022/03/06 01:06:51;;;;;;;26.50;13.90;;;3.10;69.20;;;;;;5017082;28;20087;-74
2022/03/06 01:09:16;;;;;;;30.90;14.87;;;3.10;69.50;;;;;;5034732;28;20034;-74
2022/03/06 01:11:42;;;;;;;29.30;14.73;;;3.10;69.20;;;;;;5033419;28;20115;-73
2022/03/06 01:14:08;;;;;;;26.03;13.13;;;3.10;69.20;;;;;;5033387;28;20029;-73
2022/03/06 01:16:33;;;;;;;28.87;14.63;;;3.10;69.10;;;;;;5025709;28;20111;-73
2022/03/06 01:18:59;;;;;;;27.80;14.17;;;3.10;69.60;;;;;;5034395;28;20477;-73
2022/03/06 01:21:24;;;;;;;33.10;15.33;;;3.10;70.00;;;;;;5033135;28;20048;-74
2022/03/06 01:23:50;;;;;;;27.63;14.60;;;3.00;70.30;;;;;;5033226;28;20079;-73
2022/03/06 01:26:17;;;;;;;29.90;14.77;;;3.10;70.10;;;;;;5033163;28;20037;-73
2022/03/06 01:28:43;;;;;;;27.30;14.20;;;3.10;70.00;;;;;;5016593;28;20524;-73
2022/03/06 01:31:09;;;;;;;29.87;14.37;;;3.10;70.50;;;;;;5032799;28;20033;-73
2022/03/06 01:33:34;;;;;;;26.93;13.43;;;3.10;70.70;;;;;;5032798;28;20041;-73
2022/03/06 01:36:00;;;;;;;30.90;15.43;;;3.00;71.80;;;;;;5034191;28;20041;-74
2022/03/06 01:38:25;;;;;;;29.33;14.57;;;3.10;72.50;;;;;;5049746;28;20033;-73
2022/03/06 01:40:51;;;;;;;29.10;15.17;;;3.00;71.70;;;;;;5049474;28;20033;-73
2022/03/06 01:43:17;;;;;;;29.80;13.93;;;3.00;72.60;;;;;;5032665;28;20121;-73
2022/03/06 01:45:43;;;;;;;29.27;14.03;;;3.00;71.10;;;;;;5032458;28;20033;-73
2022/03/06 01:48:09;;;;;;;31.00;15.13;;;3.00;71.20;;;;;;5033507;28;20060;-73
2022/03/06 01:50:37;;;;;;;30.30;14.67;;;3.00;71.90;;;;;;5035595;28;20078;-74
2022/03/06 01:53:04;;;;;;;29.77;14.80;;;2.90;71.70;;;;;;5052542;28;20025;-73
2022/03/06 01:55:30;;;;;;;27.23;13.63;;;2.90;72.30;;;;;;5051631;28;20040;-73
2022/03/06 01:57:58;;;;;;;31.57;14.97;;;2.90;72.70;;;;;;5052200;28;20021;-73
2022/03/06 02:00:30;;;;;;;25.30;14.20;;;2.90;72.10;;;;;;5052856;28;20469;-74
2022/03/06 02:02:55;;;;;;;31.90;14.37;;;2.90;73.60;;;;;;5033715;28;20048;-74
2022/03/06 02:05:21;;;;;;;27.83;14.63;;;2.80;72.80;;;;;;5016030;28;20355;-73
2022/03/06 02:07:47;;;;;;;28.53;15.10;;;2.80;72.90;;;;;;5032442;28;20112;-73
2022/03/06 02:10:16;;;;;;;29.27;14.60;;;2.80;73.90;;;;;;5032385;28;20028;-73
2022/03/06 02:12:43;;;;;;;29.83;15.43;;;2.80;73.10;;;;;;5032452;28;20040;-73
2022/03/06 02:15:11;;;;;;;32.00;15.80;;;2.70;72.70;;;;;;5033462;28;20383;-73
2022/03/06 02:17:38;;;;;;;28.37;15.07;;;2.70;73.00;;;;;;5033271;28;20481;-73
2022/03/06 02:20:18;;;;;;;23.40;13.37;;;2.60;72.70;;;;;;5033446;28;20171;-73
2022/03/06 02:22:46;;;;;;;25.30;14.17;;;2.60;72.70;;;;;;5034222;28;20022;-73
2022/03/06 02:25:18;;;;;;;26.20;13.67;;;2.60;72.60;;;;;;5032185;28;20025;-74
2022/03/06 02:27:44;;;;;;;26.43;14.20;;;2.60;72.80;;;;;;5034379;28;20367;-74
2022/03/06 02:30:13;;;;;;;29.37;14.70;;;2.50;73.10;;;;;;5014465;28;20110;-73
2022/03/06 02:32:39;;;;;;;23.30;13.20;;;2.50;72.90;;;;;;5030576;28;20486;-73
2022/03/06 02:35:06;;;;;;;24.37;13.30;;;2.50;72.70;;;;;;5038773;28;20033;-73
2022/03/06 02:37:32;;;;;;;26.60;14.47;;;2.50;72.70;;;;;;5053018;28;20027;-73
2022/03/06 02:40:00;;;;;;;25.60;14.27;;;2.40;73.00;;;;;;5051910;28;20100;-73
2022/03/06 02:42:42;;;;;;;25.67;12.47;;;2.40;73.00;;;;;;5050665;28;20120;-73
2022/03/06 02:45:12;;;;;;;23.80;12.57;;;2.40;72.60;;;;;;5053005;28;20151;-73
2022/03/06 02:47:39;;;;;;;28.13;12.90;;;2.30;72.60;;;;;;5052803;28;20052;-73
2022/03/06 02:50:07;;;;;;;25.87;13.37;;;2.30;72.60;;;;;;5051425;28;20048;-73
2022/03/06 02:52:33;;;;;;;27.23;12.70;;;2.30;72.70;;;;;;5052026;28;20051;-73
2022/03/06 02:54:59;;;;;;;27.93;13.13;;;2.30;72.80;;;;;;5031304;28;20044;-73
2022/03/06 02:57:24;;;;;;;23.50;12.67;;;2.30;72.80;;;;;;5031773;28;20096;-73
2022/03/06 02:59:50;;;;;;;25.43;13.10;;;2.30;72.80;;;;;;5048455;28;20030;-74
2022/03/06 03:02:16;;;;;;;25.67;13.53;;;2.30;72.40;;;;;;5031604;28;20036;-73
2022/03/06 03:04:41;;;;;;;24.70;13.67;;;2.20;73.20;;;;;;5050967;28;20021;-73
2022/03/06 03:07:10;;;;;;;28.50;14.10;;;2.20;73.20;;;;;;5053117;28;20025;-73
2022/03/06 03:09:36;;;;;;;31.03;15.03;;;2.20;74.30;;;;;;5039289;28;20029;-73
2022/03/06 03:12:02;;;;;;;27.60;13.93;;;2.20;74.50;;;;;;5056819;28;20024;-74
2022/03/06 03:14:31;;;;;;;28.40;14.23;;;2.20;74.60;;;;;;5047766;28;20053;-73
2022/03/06 03:17:01;;;;;;;28.50;14.27;;;2.20;74.50;;;;;;5036745;28;20488;-73
2022/03/06 03:19:27;;;;;;;29.07;14.33;;;2.20;75.60;;;;;;5035526;28;20048;-73
2022/03/06 03:21:53;;;;;;;28.40;14.97;;;2.20;74.90;;;;;;5035298;28;20462;-73
2022/03/06 03:24:19;;;;;;;25.77;13.10;;;2.20;75.90;;;;;;5036710;28;20056;-73
2022/03/06 03:26:45;;;;;;;24.83;14.00;;;2.20;75.00;;;;;;5035343;28;20061;-73
2022/03/06 03:29:10;;;;;;;29.27;15.13;;;2.10;74.60;;;;;;5047338;28;20496;-73
2022/03/06 03:31:36;;;;;;;24.63;13.50;;;2.10;75.30;;;;;;5055350;28;20025;-74
2022/03/06 03:34:02;;;;;;;27.17;13.60;;;2.10;74.90;;;;;;5048887;28;20030;-73
2022/03/06 03:36:28;;;;;;;23.20;12.97;;;2.10;75.20;;;;;;5036278;28;20100;-73
2022/03/06 03:38:54;;;;;;;21.17;12.67;;;2.10;74.80;;;;;;5035193;28;20050;-73
2022/03/06 03:41:19;;;;;;;26.77;12.73;;;2.10;76.40;;;;;;5018552;28;20061;-73
2022/03/06 03:43:45;;;;;;;26.30;13.00;;;2.10;75.40;;;;;;5034950;28;20026;-74
2022/03/06 03:46:11;;;;;;;25.83;13.33;;;2.00;76.50;;;;;;5053030;28;20485;-74
2022/03/06 03:48:36;;;;;;;27.17;14.00;;;2.00;76.80;;;;;;5054835;28;20448;-74
2022/03/06 03:51:02;;;;;;;26.27;14.43;;;2.00;76.30;;;;;;5054882;28;20098;-73
2022/03/06 03:53:28;;;;;;;28.40;13.43;;;1.90;77.20;;;;;;5051208;28;20044;-73
2022/03/06 03:55:53;;;;;;;22.17;12.73;;;2.00;76.80;;;;;;5018391;28;20120;-73
2022/03/06 03:58:20;;;;;;;26.67;12.93;;;1.90;77.30;;;;;;5018251;28;20029;-73
2022/03/06 04:00:48;;;;;;;27.80;14.70;;;1.90;77.60;;;;;;5037042;28;20038;-73
2022/03/06 04:03:14;;;;;;;29.37;14.67;;;1.90;77.00;;;;;;5018738;28;20025;-73
2022/03/06 04:05:40;;;;;;;25.47;13.87;;;1.90;77.30;;;;;;5034685;28;20382;-73
2022/03/06 04:08:05;;;;;;;24.83;13.67;;;1.80;77.20;;;;;;5034680;28;20040;-73
2022/03/06 04:10:31;;;;;;;31.03;14.97;;;1.80;77.60;;;;;;5034565;28;20029;-73
2022/03/06 04:12:56;;;;;;;24.90;13.83;;;1.90;79.20;;;;;;5036757;28;20108;-73
2022/03/06 04:15:22;;;;;;;24.03;13.77;;;1.90;78.80;;;;;;5055736;28;20386;-73
2022/03/06 04:17:48;;;;;;;26.57;14.80;;;1.90;78.10;;;;;;5037890;28;20033;-74
2022/03/06 04:20:13;;;;;;;29.17;14.63;;;1.80;78.00;;;;;;5020513;28;20033;-73
2022/03/06 04:22:39;;;;;;;28.03;14.93;;;1.80;78.80;;;;;;5055556;28;20025;-73
2022/03/06 04:25:05;;;;;;;27.47;13.87;;;1.80;77.90;;;;;;5055619;28;20037;-73
2022/03/06 04:27:31;;;;;;;23.73;13.20;;;1.80;78.20;;;;;;5049652;28;20381;-73
2022/03/06 04:29:57;;;;;;;28.27;14.13;;;1.80;78.60;;;;;;5035617;28;20021;-73
2022/03/06 04:32:23;;;;;;;28.17;12.87;;;1.80;78.50;;;;;;5035465;28;20087;-73
2022/03/06 04:34:49;;;;;;;23.50;13.53;;;1.70;80.10;;;;;;5051550;28;20074;-73
2022/03/06 04:37:15;;;;;;;28.77;14.17;;;1.80;79.10;;;;;;5034060;28;20024;-73
2022/03/06 04:39:41;;;;;;;24.67;12.87;;;1.70;78.10;;;;;;5035384;28;20025;-74
2022/03/06 04:42:06;;;;;;;26.63;13.83;;;1.70;78.90;;;;;;5017748;28;20040;-73
2022/03/06 04:44:32;;;;;;;29.90;14.40;;;1.70;78.40;;;;;;5043578;28;20115;-73
2022/03/06 04:46:58;;;;;;;25.33;13.17;;;1.60;78.20;;;;;;5037137;28;20029;-73
2022/03/06 04:49:24;;;;;;;26.27;13.27;;;1.60;78.90;;;;;;5053456;28;20048;-73
2022/03/06 04:51:49;;;;;;;29.20;13.70;;;1.60;77.80;;;;;;5053810;28;20037;-73
2022/03/06 04:54:15;;;;;;;22.87;13.03;;;1.60;78.90;;;;;;5036999;28;20033;-73
2022/03/06 04:56:41;;;;;;;23.17;12.93;;;1.60;80.30;;;;;;5033858;28;20037;-74
2022/03/06 04:59:07;;;;;;;26.93;14.37;;;1.60;79.80;;;;;;5033779;28;20508;-73
2022/03/06 05:01:32;;;;;;;26.73;15.17;;;1.60;80.50;;;;;;5017310;28;20367;-74
2022/03/06 05:04:00;;;;;;;26.80;14.47;;;1.60;79.70;;;;;;5050156;28;20552;-74
2022/03/06 05:06:26;;;;;;;25.17;13.93;;;1.60;79.80;;;;;;5049910;28;20033;-73
2022/03/06 05:08:52;;;;;;;24.87;12.70;;;1.50;79.50;;;;;;5033574;28;20552;-73
2022/03/06 05:11:17;;;;;;;25.50;13.33;;;1.50;79.20;;;;;;5034713;28;20036;-74
2022/03/06 05:13:43;;;;;;;24.33;13.27;;;1.50;78.80;;;;;;5033449;28;20026;-74
2022/03/06 05:16:09;;;;;;;23.07;12.83;;;1.50;78.50;;;;;;5033805;28;20034;-73
2022/03/06 05:18:35;;;;;;;20.73;11.23;;;1.40;78.30;;;;;;5033400;28;20033;-73
2022/03/06 05:21:01;;;;;;;19.60;11.80;;;1.40;78.50;;;;;;5033347;28;20047;-73
2022/03/06 05:23:26;;;;;;;26.53;13.17;;;1.40;78.50;;;;;;5033246;28;20108;-73
2022/03/06 05:25:54;;;;;;;26.23;13.53;;;1.40;78.90;;;;;;5033157;28;20112;-73
2022/03/06 05:28:20;;;;;;;23.00;13.23;;;1.40;79.10;;;;;;5035589;28;20156;-73
2022/03/06 05:30:46;;;;;;;25.43;13.17;;;1.30;78.90;;;;;;5047163;28;20115;-73
2022/03/06 05:33:12;;;;;;;20.97;11.37;;;1.40;79.10;;;;;;5027991;28;20116;-74
2022/03/06 05:35:38;;;;;;;22.30;12.33;;;1.40;78.80;;;;;;5029664;28;20032;-73
2022/03/06 05:38:03;;;;;;;22.97;12.57;;;1.50;79.20;;;;;;5044240;28;20033;-73
2022/03/06 05:40:29;;;;;;;25.03;13.37;;;1.40;78.90;;;;;;5033507;28;20038;-73
2022/03/06 05:42:55;;;;;;;23.83;13.10;;;1.40;78.80;;;;;;5031880;28;20371;-73
2022/03/06 05:45:21;;;;;;;24.07;13.77;;;1.40;78.70;;;;;;5034003;28;20025;-73
2022/03/06 05:47:46;;;;;;;25.67;14.50;;;1.40;78.60;;;;;;5032652;28;20057;-73
2022/03/06 05:50:12;;;;;;;23.70;13.10;;;1.30;78.90;;;;;;5025502;28;20029;-73
2022/03/06 05:52:39;;;;;;;29.60;13.97;;;1.30;78.70;;;;;;5032744;28;20060;-73
2022/03/06 05:55:05;;;;;;;24.17;13.37;;;1.30;79.00;;;;;;5032610;28;20038;-73
2022/03/06 05:57:31;;;;;;;25.80;14.00;;;1.30;78.70;;;;;;5032525;28;20445;-73
2022/03/06 05:59:56;;;;;;;25.77;15.00;;;1.30;78.70;;;;;;5050659;28;20064;-73
2022/03/06 06:02:23;;;;;;;23.07;13.43;;;1.30;79.30;;;;;;5053559;28;20087;-73
2022/03/06 06:04:49;;;;;;;20.90;12.63;;;1.30;78.90;;;;;;5053657;28;20031;-73
2022/03/06 06:07:15;;;;;;;23.53;13.33;;;1.20;78.60;;;;;;5035692;28;20025;-73
2022/03/06 06:09:41;;;;;;;26.37;13.47;;;1.20;78.60;;;;;;5053454;28;20377;-74
2022/03/06 06:12:07;;;;;;;24.90;13.10;;;1.10;78.30;;;;;;5052228;28;20115;-73
2022/03/06 06:14:33;;;;;;;24.90;12.80;;;1.10;78.60;;;;;;5051739;28;20089;-73
2022/03/06 06:16:59;;;;;;;23.80;12.77;;;1.10;79.20;;;;;;5051960;28;20037;-74
2022/03/06 06:19:25;;;;;;;26.13;12.23;;;1.10;79.40;;;;;;5052237;28;20036;-73
2022/03/06 06:21:50;;;;;;;23.80;12.93;;;1.10;79.40;;;;;;5053220;28;20098;-73
2022/03/06 06:24:16;;;;;;;23.23;12.67;;;1.10;80.00;;;;;;5053388;28;20036;-73
2022/03/06 06:26:43;;;;;;;26.80;14.53;;;1.10;80.20;;;;;;5052114;28;20082;-73
2022/03/06 06:29:09;;;;;;;23.57;13.30;;;1.10;80.40;;;;;;5033255;28;20040;-73
2022/03/06 06:31:34;;;;;;;27.30;14.50;;;1.10;81.40;;;;;;5015602;28;20125;-73
2022/03/06 06:34:00;;;;;;;29.03;14.43;;;1.10;82.30;;;;;;5023604;28;20167;-73
2022/03/06 06:36:26;;;;;;;25.07;14.67;;;1.20;82.70;;;;;;5033287;28;20125;-73
2022/03/06 06:38:52;;;;;;;28.30;14.27;;;1.20;82.20;;;;;;5033200;28;20376;-73
2022/03/06 06:41:18;;;;;;;23.23;13.43;;;1.20;83.00;;;;;;5014966;28;20465;-73
2022/03/06 06:43:44;;;;;;;28.27;14.40;;;1.20;83.00;;;;;;5033527;28;20064;-73
2022/03/06 06:46:11;;;;;;;27.63;14.80;;;1.20;83.20;;;;;;5031849;28;20393;-73
2022/03/06 06:48:38;;;;;;;27.63;14.70;;;1.20;82.20;;;;;;5031665;28;20460;-73
2022/03/06 06:51:04;;;;;;;26.20;15.67;;;1.10;82.00;;;;;;5032859;28;20100;-73
2022/03/06 06:53:30;;;;;;;28.70;14.90;;;1.10;82.00;;;;;;5031891;28;20045;-73
2022/03/06 06:55:55;;;;;;;24.90;14.50;;;1.00;82.00;;;;;;5032087;28;20041;-73
2022/03/06 06:58:21;;;;;;;25.37;14.23;;;1.00;82.10;;;;;;5037080;28;20024;-73
2022/03/06 07:00:47;;;;;;;25.43;15.27;;;1.00;83.90;;;;;;5041429;28;20057;-73
2022/03/06 07:03:13;;;;;;;27.90;14.43;;;1.00;82.90;;;;;;5042406;28;20074;-73
2022/03/06 07:05:39;;;;;;;26.23;15.50;;;1.00;83.30;;;;;;5042272;28;20045;-73
2022/03/06 07:08:04;;;;;;;26.17;15.27;;;1.00;83.10;;;;;;5026565;28;20347;-73
2022/03/06 07:10:30;;;;;;;26.93;14.10;;;1.00;83.40;;;;;;5047457;28;20031;-73
2022/03/06 07:12:56;;;;;;;23.87;14.17;;;1.00;83.20;;;;;;5051743;28;20094;-73
2022/03/06 07:15:28;;;;;;;27.37;14.97;;;1.00;83.90;;;;;;5038497;28;20058;-74
2022/03/06 07:17:58;;;;;;;25.07;13.97;;;1.10;84.50;;;;;;5040264;28;20124;-74
2022/03/06 07:20:23;;;;;;;24.43;14.07;;;1.10;84.40;;;;;;5050314;28;20037;-74
2022/03/06 07:22:49;;;;;;;25.07;13.77;;;1.20;84.50;;;;;;5051770;28;20400;-74
2022/03/06 07:25:15;;;;;;;21.67;13.23;;;1.20;85.50;;;;;;5051577;28;20031;-74
2022/03/06 07:27:40;;;;;;;23.23;13.73;;;1.30;86.40;;;;;;5034861;28;20033;-74
2022/03/06 07:30:07;;;;;;;24.23;13.20;;;1.30;85.50;;;;;;5046903;28;20036;-73
2022/03/06 07:32:32;;;;;;;24.30;12.90;;;1.30;85.00;;;;;;5042421;28;20515;-80
2022/03/06 07:34:58;;;;;;;20.20;12.80;;;1.40;84.80;;;;;;5040700;28;20037;-80
2022/03/06 07:37:23;;;;;;;22.50;13.13;;;1.40;84.90;;;;;;5042592;28;20057;-80
2022/03/06 07:39:49;;;;;;;23.67;14.03;;;1.40;84.70;;;;;;5041674;28;20036;-80
2022/03/06 07:42:15;;;;;;;21.37;13.00;;;1.40;85.10;;;;;;5038200;28;20033;-81
2022/03/06 07:44:40;;;;;;;23.73;13.63;;;1.50;86.30;;;;;;5038960;28;20033;-80
2022/03/06 07:47:07;;;;;;;24.00;13.00;;;1.60;87.60;;;;;;5042622;28;20029;-80
2022/03/06 07:49:32;;;;;;;23.43;13.60;;;1.60;87.50;;;;;;5041463;28;20076;-81
2022/03/06 07:51:58;;;;;;;21.20;12.07;;;1.60;87.20;;;;;;5041594;28;20436;-81
2022/03/06 07:54:23;;;;;;;22.63;13.50;;;1.70;87.30;;;;;;5045274;28;20037;-81
2022/03/06 07:56:49;;;;;;;23.03;13.90;;;1.70;88.20;;;;;;5051221;28;20478;-81
2022/03/06 07:59:15;;;;;;;23.67;13.63;;;1.80;88.70;;;;;;5043893;28;20045;-81
2022/03/06 08:01:40;;;;;;;21.37;12.10;;;1.90;88.00;;;;;;5045503;28;20035;-82
2022/03/06 08:04:06;;;;;;;19.53;12.63;;;1.90;89.00;;;;;;5046664;28;20030;-81
2022/03/06 08:06:32;;;;;;;20.10;12.37;;;2.00;89.20;;;;;;5043293;28;20029;-80
2022/03/06 08:08:57;;;;;;;24.53;12.73;;;2.10;90.20;;;;;;5044649;28;20029;-80
2022/03/06 08:11:23;;;;;;;19.67;12.17;;;2.10;88.90;;;;;;5035581;28;20026;-80
2022/03/06 08:13:49;;;;;;;25.47;11.70;;;2.10;88.10;;;;;;5044269;28;20481;-80
2022/03/06 08:16:14;;;;;;;19.83;11.87;;;2.20;88.40;;;;;;5044698;28;20029;-80
2022/03/06 08:18:40;;;;;;;23.33;12.80;;;2.30;89.80;;;;;;5044274;28;20037;-80
2022/03/06 08:21:05;;;;;;;19.13;10.90;;;2.30;88.10;;;;;;5044527;28;20118;-81
2022/03/06 08:23:31;;;;;;;20.60;11.57;;;2.30;87.30;;;;;;5034512;28;20478;-81
2022/03/06 08:25:57;;;;;;;20.93;13.30;;;2.30;86.90;;;;;;5034672;28;20091;-80
2022/03/06 08:28:22;;;;;;;22.90;12.23;;;2.30;86.70;;;;;;5048824;28;20523;-81
2022/03/06 08:30:48;;;;;;;19.57;11.47;;;2.30;86.60;;;;;;5055529;28;20057;-80
2022/03/06 08:33:13;;;;;;;21.63;11.43;;;2.30;86.50;;;;;;5037727;28;20123;-81
2022/03/06 08:35:39;;;;;;;19.30;9.93;;;2.40;86.40;;;;;;5055714;28;20041;-80
2022/03/06 08:38:05;;;;;;;19.37;10.77;;;2.50;86.30;;;;;;5037642;28;20040;-81
2022/03/06 08:40:31;;;;;;;17.50;10.07;;;2.50;86.80;;;;;;5055434;28;20035;-80
2022/03/06 08:42:57;;;;;;;19.23;11.30;;;2.60;86.20;;;;;;5049679;28;20063;-80
2022/03/06 08:45:23;;;;;;;15.43;9.23;;;2.60;86.10;;;;;;5053807;28;20029;-80
2022/03/06 08:47:49;;;;;;;16.10;9.10;;;2.70;85.90;;;;;;5053745;28;20045;-80
2022/03/06 08:50:15;;;;;;;16.10;10.23;;;2.80;85.60;;;;;;5037359;28;20099;-80
2022/03/06 08:52:40;;;;;;;20.20;10.10;;;2.90;85.50;;;;;;5050625;28;20034;-80
2022/03/06 08:55:08;;;;;;;19.33;9.67;;;2.90;85.20;;;;;;5029581;28;20037;-81
2022/03/06 08:57:33;;;;;;;16.73;9.93;;;3.00;85.00;;;;;;5055063;28;20049;-80
2022/03/06 08:59:59;;;;;;;15.27;9.70;;;3.10;85.20;;;;;;5053940;28;20060;-80
2022/03/06 09:02:25;;;;;;;15.60;8.13;;;3.30;85.10;;;;;;5037246;28;20481;-79
2022/03/06 09:04:50;;;;;;;17.90;8.97;;;3.40;84.80;;;;;;5036858;28;20036;-80
2022/03/06 09:07:16;;;;;;;17.67;8.23;;;3.40;84.60;;;;;;5053585;28;20536;-79
2022/03/06 09:09:42;;;;;;;15.43;8.63;;;3.50;84.50;;;;;;5023524;28;20034;-77
2022/03/06 09:12:07;;;;;;;13.50;8.30;;;3.60;84.20;;;;;;5030505;28;20116;-81
2022/03/06 09:14:33;;;;;;;16.83;9.33;;;3.70;83.30;;;;;;5017233;28;20041;-78
2022/03/06 09:16:59;;;;;;;16.13;9.23;;;3.80;82.70;;;;;;5017232;28;20037;-80
2022/03/06 09:19:24;;;;;;;16.27;9.03;;;3.90;81.90;;;;;;5000872;28;20045;-80
2022/03/06 09:21:50;;;;;;;17.57;9.03;;;4.00;82.00;;;;;;5034563;28;20033;-79
2022/03/06 09:24:16;;;;;;;15.27;7.97;;;4.10;81.60;;;;;;5033251;28;20037;-79
2022/03/06 09:26:43;;;;;;;19.77;8.00;;;4.10;80.90;;;;;;5017047;28;20029;-80
2022/03/06 09:29:08;;;;;;;17.50;7.50;;;4.20;80.90;;;;;;5034743;28;20022;-79
2022/03/06 09:31:34;;;;;;;11.87;6.80;;;4.30;80.80;;;;;;5033272;28;20031;-79
2022/03/06 09:34:00;;;;;;;13.73;7.40;;;4.40;80.70;;;;;;5033219;28;20030;-81
2022/03/06 09:36:25;;;;;;;12.27;7.20;;;4.50;80.10;;;;;;5034441;28;20422;-79
2022/03/06 09:38:51;;;;;;;11.73;6.40;;;4.60;79.70;;;;;;5034878;28;20060;-81
2022/03/06 09:41:19;;;;;;;11.20;6.77;;;4.70;79.60;;;;;;5016721;28;20061;-82
2022/03/06 09:43:45;;;;;;;11.23;6.20;;;4.90;79.10;;;;;;5032889;28;20551;-78
2022/03/06 09:46:12;;;;;;;12.70;6.43;;;4.90;78.60;;;;;;5032906;28;20032;-79
2022/03/06 09:48:37;;;;;;;12.97;6.30;;;4.90;78.20;;;;;;5034175;28;20056;-79
2022/03/06 09:51:04;;;;;;;11.03;6.20;;;5.10;77.00;;;;;;5034143;28;20029;-78
2022/03/06 09:53:31;;;;;;;11.93;6.17;;;5.20;76.50;;;;;;5016944;28;20115;-78
2022/03/06 09:55:57;;;;;;;11.33;6.47;;;5.10;76.00;;;;;;5017030;28;20025;-78
2022/03/06 09:58:23;;;;;;;11.17;5.73;;;5.30;75.40;;;;;;5032597;28;20039;-78
2022/03/06 10:00:49;;;;;;;13.60;6.30;;;5.40;74.50;;;;;;5034002;28;20048;-78
2022/03/06 10:03:19;;;;;;;11.40;6.27;;;5.50;73.80;;;;;;5033805;28;20504;-79
2022/03/06 10:05:45;;;;;;;10.43;5.60;;;5.60;73.80;;;;;;5046140;28;20111;-79
2022/03/06 10:08:28;;;;;;;8.80;5.50;;;5.90;74.30;;;;;;5053752;28;20057;-79
2022/03/06 10:11:05;;;;;;;12.50;5.27;;;6.20;74.40;;;;;;5051928;28;20040;-79
2022/03/06 10:13:33;;;;;;;14.07;5.97;;;6.60;73.20;;;;;;5036384;28;20029;-78
2022/03/06 10:16:05;;;;;;;10.73;4.87;;;7.00;72.20;;;;;;5033300;28;20033;-77
2022/03/06 10:18:37;;;;;;;8.97;4.23;;;7.50;72.20;;;;;;5033542;28;20029;-77
2022/03/06 10:21:15;;;;;;;11.23;4.63;;;8.10;72.10;;;;;;5032457;28;20087;-78
2022/03/06 10:23:41;;;;;;;7.22;3.80;;;9.00;71.40;;;;;;5033509;28;20489;-78
2022/03/06 10:26:19;;;;;;;7.95;4.07;;;9.80;69.40;;;;;;5033642;28;20408;-80
2022/03/06 10:28:58;;;;;;;6.68;3.40;;;10.60;67.70;;;;;;5040835;28;20029;-78
2022/03/06 10:31:26;;;;;;;5.20;2.85;;;11.40;67.00;;;;;;5052812;28;20025;-78
2022/03/06 10:33:59;;;;;;;7.15;3.17;;;12.10;65.50;;;;;;5053358;28;20457;-78
2022/03/06 10:36:39;;;;;;;6.50;2.75;;;12.80;62.50;;;;;;5051982;28;20090;-78
2022/03/06 10:39:29;;;;;;;5.72;3.03;;;13.40;58.90;;;;;;5051925;28;20021;-78
2022/03/06 10:41:56;;;;;;;5.30;2.67;;;13.90;57.60;;;;;;5039440;28;20397;-79
2022/03/06 10:44:40;;;;;;;4.80;2.65;;;14.60;56.60;;;;;;5047369;28;20027;-80
2022/03/06 10:47:06;;;;;;;;;;;15.20;56.20;;;;;;5053587;28;20056;-78
2022/03/06 10:49:33;;;;;;;5.03;2.88;;;15.80;56.10;;;;;;5051760;28;19928;-78
2022/03/06 10:52:12;;;;;;;3.83;2.38;;;16.30;55.90;;;;;;5052061;28;20078;-80
2022/03/06 10:54:54;;;;;;;4.63;2.40;;;16.90;51.90;;;;;;5053223;28;20489;-79
2022/03/06 10:57:21;;;;;;;6.63;2.85;;;17.40;47.90;;;;;;5033196;28;20029;-79
2022/03/06 10:59:49;;;;;;;6.88;2.85;;;17.70;46.70;;;;;;5032004;28;20033;-79
2022/03/06 11:02:16;;;;;;;9.15;2.63;;;17.80;44.50;;;;;;5032007;28;20550;-79
2022/03/06 11:04:46;;;;;;;7.25;2.47;;;18.00;43.60;;;;;;5032331;28;20060;-79
2022/03/06 11:07:12;;;;;;;4.50;2.30;;;18.20;43.30;;;;;;5033214;28;20022;-82
2022/03/06 11:09:38;;;;;;;3.50;2.10;;;18.40;41.90;;;;;;5033030;28;20025;-79
2022/03/06 11:12:05;;;;;;;5.15;2.70;;;18.50;40.70;;;;;;5015525;28;20033;-77
2022/03/06 11:14:32;;;;;;;5.32;3.10;;;18.70;40.90;;;;;;5031581;28;20034;-79
2022/03/06 11:16:58;;;;;;;5.18;2.60;;;18.90;40.00;;;;;;5031830;28;20029;-79
2022/03/06 11:19:25;;;;;;;6.28;3.00;;;19.20;39.00;;;;;;5031619;28;20497;-78
2022/03/06 11:21:59;;;;;;;5.07;2.70;;;19.30;37.60;;;;;;5040760;28;20456;-79
2022/03/06 11:24:28;;;;;;;5.30;3.00;;;19.40;37.80;;;;;;5048649;28;20474;-79
2022/03/06 11:27:19;;;;;;;5.43;2.88;;;19.50;38.10;;;;;;5052533;28;20021;-84
2022/03/06 11:29:54;;;;;;;5.25;2.83;;;19.80;37.00;;;;;;5055064;28;20064;-79
2022/03/06 11:32:28;;;;;;;6.28;2.95;;;20.00;36.00;;;;;;5056886;28;20505;-80
2022/03/06 11:35:05;;;;;;;5.75;3.28;;;20.10;35.80;;;;;;5056433;28;20028;-79
2022/03/06 11:37:49;;;;;;;5.93;2.92;;;20.00;35.80;;;;;;5056840;28;20150;-79
2022/03/06 11:40:34;;;;;;;;;;;20.30;35.50;;;;;;5055395;28;20017;-79
2022/03/06 11:43:00;;;;;;;4.80;2.53;;;20.60;35.80;;;;;;5056269;28;19915;-80
2022/03/06 11:45:51;;;;;;;4.95;2.30;;;21.10;35.80;;;;;;5036185;28;20038;-81
2022/03/06 11:48:25;;;;;;;6.30;2.80;;;21.50;34.10;;;;;;5034889;28;20099;-83
2022/03/06 11:51:19;;;;;;;3.88;2.17;;;21.60;33.20;;;;;;5036520;28;20025;-81
2022/03/06 11:54:10;;;;;;;5.30;2.95;;;21.60;32.80;;;;;;5036693;28;20385;-80
2022/03/06 11:56:35;;;;;;;4.32;2.25;;;21.50;32.70;;;;;;5036314;28;20034;-80
2022/03/06 11:59:02;;;;;;;6.55;3.80;;;21.50;32.60;;;;;;5036250;28;20075;-79
2022/03/06 12:01:33;;;;;;;6.10;3.25;;;20.90;31.30;;;;;;5036342;28;20049;-79
2022/03/06 12:04:22;;;;;;;5.35;3.13;;;20.30;31.90;;;;;;5045610;28;20059;-79
2022/03/06 12:06:49;;;;;;;4.80;3.10;;;20.00;32.30;;;;;;5027174;28;20024;-81
2022/03/06 12:09:17;;;;;;;5.65;3.30;;;20.10;32.80;;;;;;5034753;28;20025;-80
2022/03/06 12:11:43;;;;;;;4.05;2.85;;;20.20;32.90;;;;;;5034808;28;20084;-80
2022/03/06 12:14:17;;;;;;;5.55;3.17;;;20.70;32.80;;;;;;5044482;28;20481;-82
2022/03/06 12:17:01;;;;;;;4.28;2.65;;;21.10;32.40;;;;;;5044294;28;20041;-82
2022/03/06 12:19:28;;;;;;;3.75;2.45;;;21.10;32.20;;;;;;5045684;28;20421;-81
2022/03/06 12:22:09;;;;;;;4.32;2.35;;;21.00;32.70;;;;;;5028951;28;20470;-82
2022/03/06 12:24:35;;;;;;;4.97;2.95;;;20.80;32.40;;;;;;5049024;28;20028;-81
2022/03/06 12:27:11;;;;;;;4.28;2.42;;;20.50;32.60;;;;;;5034003;28;20412;-82
2022/03/06 12:29:45;;;;;;;6.20;2.95;;;20.40;32.70;;;;;;5034477;28;20466;-81
2022/03/06 12:32:29;;;;;;;5.03;2.95;;;20.10;32.60;;;;;;5034349;28;20079;-81
2022/03/06 12:35:02;;;;;;;4.80;2.67;;;20.00;32.60;;;;;;5034372;28;20034;-81
2022/03/06 12:37:33;;;;;;;4.63;2.63;;;19.80;32.90;;;;;;5035338;28;20091;-80
2022/03/06 12:40:00;;;;;;;5.13;2.55;;;19.80;32.90;;;;;;5037283;28;20025;-81
2022/03/06 12:42:30;;;;;;;5.30;2.90;;;19.80;33.00;;;;;;5037066;28;20416;-81